Terminal Aerodrome Forecast
Issued by NWS

Home | Current Version | Previous Version | Text Only | Print | Product List | Glossary On
Versions: 1 2 3 4 5 6 7 8 9 10 11 12 13 14 15 16 17 18 19 20 21 22 23 24 25 26 27 28 29 30 31 32 33 34 35 36 37 38 39 40 41 42
000
FTUS41 KBGM 161042 AAC
TAFITH
TAF AMD
KITH 161042Z 1611/1706 16005KT P6SM -SHRA OVC035
      TEMPO 1611/1615 4SM -SHRA OVC025
     FM161500 30005KT P6SM OVC025
     FM170200 33007KT P6SM BKN035=

USA.gov is the U.S. government's official web portal to all federal, state and local government web resources and services.